sensor_id;sensor_type;location;lat;lon;timestamp;P1;durP1;ratioP1;P2;durP2;ratioP2
11620;SDS011;5866;49.094;11.900;2023-09-19T00:00:35;39.00;;;36.95;;
11620;SDS011;5866;49.094;11.900;2023-09-19T00:03:02;34.92;;;33.03;;
11620;SDS011;5866;49.094;11.900;2023-09-19T00:05:33;39.33;;;36.97;;
11620;SDS011;5866;49.094;11.900;2023-09-19T00:08:02;28.77;;;27.20;;
11620;SDS011;5866;49.094;11.900;2023-09-19T00:10:30;26.02;;;24.55;;
11620;SDS011;5866;49.094;11.900;2023-09-19T00:13:01;36.05;;;33.92;;
11620;SDS011;5866;49.094;11.900;2023-09-19T00:15:37;21.23;;;19.75;;
11620;SDS011;5866;49.094;11.900;2023-09-19T00:18:07;23.67;;;22.17;;
11620;SDS011;5866;49.094;11.900;2023-09-19T00:20:36;17.75;;;16.70;;
11620;SDS011;5866;49.094;11.900;2023-09-19T00:23:05;16.17;;;15.23;;
11620;SDS011;5866;49.094;11.900;2023-09-19T00:25:34;18.73;;;17.52;;
11620;SDS011;5866;49.094;11.900;2023-09-19T00:28:04;30.55;;;28.85;;
11620;SDS011;5866;49.094;11.900;2023-09-19T00:30:33;23.02;;;21.67;;
11620;SDS011;5866;49.094;11.900;2023-09-19T00:33:03;13.60;;;12.70;;
11620;SDS011;5866;49.094;11.900;2023-09-19T00:35:32;24.33;;;22.95;;
11620;SDS011;5866;49.094;11.900;2023-09-19T00:38:00;19.05;;;17.65;;
11620;SDS011;5866;49.094;11.900;2023-09-19T00:40:29;21.30;;;19.80;;
11620;SDS011;5866;49.094;11.900;2023-09-19T00:42:59;15.50;;;14.40;;
11620;SDS011;5866;49.094;11.900;2023-09-19T00:45:27;22.00;;;20.70;;
11620;SDS011;5866;49.094;11.900;2023-09-19T00:47:55;22.23;;;20.95;;
11620;SDS011;5866;49.094;11.900;2023-09-19T00:50:25;18.83;;;17.60;;
11620;SDS011;5866;49.094;11.900;2023-09-19T00:52:54;17.90;;;16.73;;
11620;SDS011;5866;49.094;11.900;2023-09-19T00:55:23;16.42;;;15.30;;
11620;SDS011;5866;49.094;11.900;2023-09-19T00:57:52;15.10;;;14.05;;
11620;SDS011;5866;49.094;11.900;2023-09-19T01:00:20;14.57;;;13.63;;
11620;SDS011;5866;49.094;11.900;2023-09-19T01:02:49;12.07;;;11.32;;
11620;SDS011;5866;49.094;11.900;2023-09-19T01:05:17;19.48;;;18.25;;
11620;SDS011;5866;49.094;11.900;2023-09-19T01:07:46;17.80;;;16.67;;
11620;SDS011;5866;49.094;11.900;2023-09-19T01:10:17;15.57;;;14.38;;
11620;SDS011;5866;49.094;11.900;2023-09-19T01:12:48;24.90;;;23.05;;
11620;SDS011;5866;49.094;11.900;2023-09-19T01:15:27;25.48;;;23.88;;
11620;SDS011;5866;49.094;11.900;2023-09-19T01:18:01;18.63;;;17.42;;
11620;SDS011;5866;49.094;11.900;2023-09-19T01:20:37;17.75;;;16.75;;
11620;SDS011;5866;49.094;11.900;2023-09-19T01:23:13;15.20;;;14.20;;
11620;SDS011;5866;49.094;11.900;2023-09-19T01:26:01;15.90;;;14.80;;
11620;SDS011;5866;49.094;11.900;2023-09-19T01:28:39;16.88;;;15.45;;
11620;SDS011;5866;49.094;11.900;2023-09-19T01:31:22;15.15;;;14.15;;
11620;SDS011;5866;49.094;11.900;2023-09-19T01:33:59;14.60;;;13.55;;
11620;SDS011;5866;49.094;11.900;2023-09-19T01:36:28;19.00;;;17.80;;
11620;SDS011;5866;49.094;11.900;2023-09-19T01:38:57;23.83;;;22.55;;
11620;SDS011;5866;49.094;11.900;2023-09-19T01:41:29;35.92;;;33.88;;
11620;SDS011;5866;49.094;11.900;2023-09-19T01:44:06;35.85;;;33.85;;
11620;SDS011;5866;49.094;11.900;2023-09-19T01:46:41;19.63;;;18.27;;
11620;SDS011;5866;49.094;11.900;2023-09-19T01:49:13;17.92;;;16.92;;
11620;SDS011;5866;49.094;11.900;2023-09-19T01:51:54;29.83;;;28.13;;
11620;SDS011;5866;49.094;11.900;2023-09-19T01:54:30;24.27;;;22.88;;
11620;SDS011;5866;49.094;11.900;2023-09-19T01:57:05;25.48;;;24.08;;
11620;SDS011;5866;49.094;11.900;2023-09-19T01:59:37;25.27;;;23.75;;
11620;SDS011;5866;49.094;11.900;2023-09-19T02:02:14;25.27;;;23.88;;
11620;SDS011;5866;49.094;11.900;2023-09-19T02:04:44;23.08;;;21.60;;
11620;SDS011;5866;49.094;11.900;2023-09-19T02:07:11;27.60;;;25.92;;
11620;SDS011;5866;49.094;11.900;2023-09-19T02:09:41;18.00;;;16.90;;
11620;SDS011;5866;49.094;11.900;2023-09-19T02:12:09;24.63;;;23.13;;
11620;SDS011;5866;49.094;11.900;2023-09-19T02:14:37;27.73;;;26.05;;
11620;SDS011;5866;49.094;11.900;2023-09-19T02:17:04;19.92;;;18.77;;
11620;SDS011;5866;49.094;11.900;2023-09-19T02:19:37;21.05;;;19.75;;
11620;SDS011;5866;49.094;11.900;2023-09-19T02:22:05;24.13;;;22.73;;
11620;SDS011;5866;49.094;11.900;2023-09-19T02:24:33;19.58;;;18.25;;
11620;SDS011;5866;49.094;11.900;2023-09-19T02:27:01;18.35;;;17.27;;
11620;SDS011;5866;49.094;11.900;2023-09-19T02:29:32;18.52;;;17.42;;
11620;SDS011;5866;49.094;11.900;2023-09-19T02:32:00;19.67;;;18.25;;
11620;SDS011;5866;49.094;11.900;2023-09-19T02:34:30;21.85;;;20.42;;
11620;SDS011;5866;49.094;11.900;2023-09-19T02:37:00;20.58;;;19.17;;
11620;SDS011;5866;49.094;11.900;2023-09-19T02:39:27;19.48;;;18.02;;
11620;SDS011;5866;49.094;11.900;2023-09-19T02:41:55;27.98;;;26.35;;
11620;SDS011;5866;49.094;11.900;2023-09-19T02:44:23;32.53;;;30.73;;
11620;SDS011;5866;49.094;11.900;2023-09-19T02:46:51;29.10;;;27.25;;
11620;SDS011;5866;49.094;11.900;2023-09-19T02:49:18;31.48;;;29.48;;
11620;SDS011;5866;49.094;11.900;2023-09-19T02:51:46;15.93;;;14.95;;
11620;SDS011;5866;49.094;11.900;2023-09-19T02:54:15;16.13;;;15.13;;
11620;SDS011;5866;49.094;11.900;2023-09-19T02:56:43;18.48;;;17.02;;
11620;SDS011;5866;49.094;11.900;2023-09-19T02:59:11;17.42;;;16.27;;
11620;SDS011;5866;49.094;11.900;2023-09-19T03:01:39;21.80;;;20.50;;
11620;SDS011;5866;49.094;11.900;2023-09-19T03:04:06;18.38;;;17.20;;
11620;SDS011;5866;49.094;11.900;2023-09-19T03:06:34;18.10;;;16.80;;
11620;SDS011;5866;49.094;11.900;2023-09-19T03:09:02;18.17;;;16.98;;
11620;SDS011;5866;49.094;11.900;2023-09-19T03:11:33;13.20;;;12.23;;
11620;SDS011;5866;49.094;11.900;2023-09-19T03:14:01;9.27;;;8.45;;
11620;SDS011;5866;49.094;11.900;2023-09-19T03:16:30;11.63;;;10.73;;
11620;SDS011;5866;49.094;11.900;2023-09-19T03:18:58;9.73;;;9.02;;
11620;SDS011;5866;49.094;11.900;2023-09-19T03:21:26;9.05;;;8.35;;
11620;SDS011;5866;49.094;11.900;2023-09-19T03:23:55;9.80;;;9.15;;
11620;SDS011;5866;49.094;11.900;2023-09-19T03:26:23;13.10;;;12.30;;
11620;SDS011;5866;49.094;11.900;2023-09-19T03:28:54;9.65;;;8.90;;
11620;SDS011;5866;49.094;11.900;2023-09-19T03:31:21;9.07;;;8.27;;
11620;SDS011;5866;49.094;11.900;2023-09-19T03:33:49;8.45;;;7.85;;
11620;SDS011;5866;49.094;11.900;2023-09-19T03:36:17;10.43;;;9.60;;
11620;SDS011;5866;49.094;11.900;2023-09-19T03:38:45;7.60;;;7.15;;
11620;SDS011;5866;49.094;11.900;2023-09-19T03:41:12;8.52;;;7.82;;
11620;SDS011;5866;49.094;11.900;2023-09-19T03:43:40;11.43;;;10.55;;
11620;SDS011;5866;49.094;11.900;2023-09-19T03:46:10;7.55;;;6.97;;
11620;SDS011;5866;49.094;11.900;2023-09-19T03:48:39;9.50;;;8.63;;
11620;SDS011;5866;49.094;11.900;2023-09-19T03:51:07;10.10;;;9.35;;
11620;SDS011;5866;49.094;11.900;2023-09-19T03:53:34;8.57;;;7.97;;
11620;SDS011;5866;49.094;11.900;2023-09-19T03:56:02;8.30;;;7.72;;
11620;SDS011;5866;49.094;11.900;2023-09-19T03:58:29;7.20;;;6.60;;
11620;SDS011;5866;49.094;11.900;2023-09-19T04:00:57;8.27;;;7.47;;
11620;SDS011;5866;49.094;11.900;2023-09-19T04:03:27;7.88;;;7.28;;
11620;SDS011;5866;49.094;11.900;2023-09-19T04:06:01;8.25;;;7.47;;
11620;SDS011;5866;49.094;11.900;2023-09-19T04:08:29;11.07;;;9.85;;
11620;SDS011;5866;49.094;11.900;2023-09-19T04:10:57;10.30;;;9.50;;
11620;SDS011;5866;49.094;11.900;2023-09-19T04:13:25;10.88;;;10.13;;
11620;SDS011;5866;49.094;11.900;2023-09-19T04:15:53;8.93;;;8.23;;
11620;SDS011;5866;49.094;11.900;2023-09-19T04:18:21;7.38;;;6.88;;
11620;SDS011;5866;49.094;11.900;2023-09-19T04:20:50;7.95;;;7.45;;
11620;SDS011;5866;49.094;11.900;2023-09-19T04:23:18;5.93;;;5.45;;
11620;SDS011;5866;49.094;11.900;2023-09-19T04:25:46;8.50;;;7.85;;
11620;SDS011;5866;49.094;11.900;2023-09-19T04:28:14;11.55;;;10.85;;
11620;SDS011;5866;49.094;11.900;2023-09-19T04:30:42;12.23;;;11.32;;
11620;SDS011;5866;49.094;11.900;2023-09-19T04:33:10;8.70;;;8.10;;
11620;SDS011;5866;49.094;11.900;2023-09-19T04:35:40;10.63;;;9.80;;
11620;SDS011;5866;49.094;11.900;2023-09-19T04:38:10;13.23;;;12.43;;
11620;SDS011;5866;49.094;11.900;2023-09-19T04:40:38;12.55;;;11.82;;
11620;SDS011;5866;49.094;11.900;2023-09-19T04:43:06;9.80;;;9.13;;
11620;SDS011;5866;49.094;11.900;2023-09-19T04:45:34;10.65;;;9.85;;
11620;SDS011;5866;49.094;11.900;2023-09-19T04:48:02;10.82;;;10.05;;
11620;SDS011;5866;49.094;11.900;2023-09-19T04:50:30;9.93;;;9.13;;
11620;SDS011;5866;49.094;11.900;2023-09-19T04:52:57;9.30;;;8.65;;
11620;SDS011;5866;49.094;11.900;2023-09-19T04:55:28;7.35;;;6.70;;
11620;SDS011;5866;49.094;11.900;2023-09-19T04:57:56;9.27;;;8.60;;
11620;SDS011;5866;49.094;11.900;2023-09-19T05:00:24;7.60;;;7.10;;
11620;SDS011;5866;49.094;11.900;2023-09-19T05:02:55;7.60;;;6.90;;
11620;SDS011;5866;49.094;11.900;2023-09-19T05:05:24;7.53;;;7.00;;
11620;SDS011;5866;49.094;11.900;2023-09-19T05:07:52;8.20;;;7.70;;
11620;SDS011;5866;49.094;11.900;2023-09-19T05:10:22;8.75;;;8.05;;
11620;SDS011;5866;49.094;11.900;2023-09-19T05:12:53;9.55;;;8.68;;
11620;SDS011;5866;49.094;11.900;2023-09-19T05:15:21;10.55;;;9.73;;
11620;SDS011;5866;49.094;11.900;2023-09-19T05:17:49;12.43;;;11.63;;
11620;SDS011;5866;49.094;11.900;2023-09-19T05:20:22;12.35;;;11.45;;
11620;SDS011;5866;49.094;11.900;2023-09-19T05:23:00;12.20;;;11.50;;
11620;SDS011;5866;49.094;11.900;2023-09-19T05:25:34;17.20;;;16.17;;
11620;SDS011;5866;49.094;11.900;2023-09-19T05:28:05;14.90;;;14.10;;
11620;SDS011;5866;49.094;11.900;2023-09-19T05:30:34;19.10;;;18.00;;
11620;SDS011;5866;49.094;11.900;2023-09-19T05:33:04;13.85;;;12.85;;
11620;SDS011;5866;49.094;11.900;2023-09-19T05:35:33;11.63;;;10.80;;
11620;SDS011;5866;49.094;11.900;2023-09-19T05:38:03;11.50;;;10.80;;
11620;SDS011;5866;49.094;11.900;2023-09-19T05:40:31;12.48;;;11.73;;
11620;SDS011;5866;49.094;11.900;2023-09-19T05:42:59;9.90;;;9.30;;
11620;SDS011;5866;49.094;11.900;2023-09-19T05:45:28;8.75;;;8.05;;
11620;SDS011;5866;49.094;11.900;2023-09-19T05:47:56;5.60;;;5.10;;
11620;SDS011;5866;49.094;11.900;2023-09-19T05:50:35;7.53;;;6.93;;
11620;SDS011;5866;49.094;11.900;2023-09-19T05:53:03;6.03;;;5.53;;
11620;SDS011;5866;49.094;11.900;2023-09-19T05:55:31;4.65;;;4.35;;
11620;SDS011;5866;49.094;11.900;2023-09-19T05:57:59;6.22;;;5.60;;
11620;SDS011;5866;49.094;11.900;2023-09-19T06:00:26;4.90;;;4.53;;
11620;SDS011;5866;49.094;11.900;2023-09-19T06:02:57;10.48;;;9.70;;
11620;SDS011;5866;49.094;11.900;2023-09-19T06:05:26;13.80;;;12.98;;
11620;SDS011;5866;49.094;11.900;2023-09-19T06:07:56;20.83;;;19.45;;
11620;SDS011;5866;49.094;11.900;2023-09-19T06:10:27;24.35;;;23.02;;
11620;SDS011;5866;49.094;11.900;2023-09-19T06:12:55;16.20;;;15.27;;
11620;SDS011;5866;49.094;11.900;2023-09-19T06:15:24;8.55;;;8.05;;
11620;SDS011;5866;49.094;11.900;2023-09-19T06:17:53;7.78;;;7.35;;
11620;SDS011;5866;49.094;11.900;2023-09-19T06:20:23;13.27;;;12.45;;
11620;SDS011;5866;49.094;11.900;2023-09-19T06:22:52;9.18;;;8.68;;
11620;SDS011;5866;49.094;11.900;2023-09-19T06:25:20;14.52;;;13.73;;
11620;SDS011;5866;49.094;11.900;2023-09-19T06:27:50;10.75;;;10.15;;
11620;SDS011;5866;49.094;11.900;2023-09-19T06:30:20;20.27;;;19.23;;
11620;SDS011;5866;49.094;11.900;2023-09-19T06:32:49;29.30;;;27.77;;
11620;SDS011;5866;49.094;11.900;2023-09-19T06:35:17;30.80;;;29.15;;
11620;SDS011;5866;49.094;11.900;2023-09-19T06:37:46;34.00;;;32.08;;
11620;SDS011;5866;49.094;11.900;2023-09-19T06:40:14;38.78;;;36.78;;
11620;SDS011;5866;49.094;11.900;2023-09-19T06:42:44;39.08;;;36.92;;
11620;SDS011;5866;49.094;11.900;2023-09-19T06:45:13;37.58;;;35.35;;
11620;SDS011;5866;49.094;11.900;2023-09-19T06:47:44;38.60;;;36.60;;
11620;SDS011;5866;49.094;11.900;2023-09-19T06:50:12;40.63;;;38.50;;
11620;SDS011;5866;49.094;11.900;2023-09-19T06:52:40;25.25;;;23.85;;
11620;SDS011;5866;49.094;11.900;2023-09-19T06:55:10;3.20;;;3.00;;
11620;SDS011;5866;49.094;11.900;2023-09-19T06:57:39;3.45;;;2.75;;
11620;SDS011;5866;49.094;11.900;2023-09-19T07:00:10;4.13;;;3.83;;
11620;SDS011;5866;49.094;11.900;2023-09-19T07:02:44;3.70;;;2.70;;
11620;SDS011;5866;49.094;11.900;2023-09-19T07:05:13;2.53;;;2.33;;
11620;SDS011;5866;49.094;11.900;2023-09-19T07:07:40;2.63;;;2.42;;
11620;SDS011;5866;49.094;11.900;2023-09-19T07:10:11;2.88;;;2.30;;
11620;SDS011;5866;49.094;11.900;2023-09-19T07:12:39;2.90;;;2.70;;
11620;SDS011;5866;49.094;11.900;2023-09-19T07:15:08;2.92;;;2.72;;
11620;SDS011;5866;49.094;11.900;2023-09-19T07:17:36;3.25;;;3.00;;
11620;SDS011;5866;49.094;11.900;2023-09-19T07:20:04;2.67;;;2.47;;
11620;SDS011;5866;49.094;11.900;2023-09-19T07:22:34;2.75;;;2.53;;
11620;SDS011;5866;49.094;11.900;2023-09-19T07:25:02;2.22;;;2.13;;
11620;SDS011;5866;49.094;11.900;2023-09-19T07:27:32;2.67;;;2.47;;
11620;SDS011;5866;49.094;11.900;2023-09-19T07:30:00;3.38;;;2.30;;
11620;SDS011;5866;49.094;11.900;2023-09-19T07:32:27;4.45;;;3.15;;
11620;SDS011;5866;49.094;11.900;2023-09-19T07:34:55;3.38;;;2.35;;
11620;SDS011;5866;49.094;11.900;2023-09-19T07:37:23;3.10;;;2.83;;
11620;SDS011;5866;49.094;11.900;2023-09-19T07:39:52;3.13;;;2.70;;
11620;SDS011;5866;49.094;11.900;2023-09-19T07:42:19;3.33;;;3.10;;
11620;SDS011;5866;49.094;11.900;2023-09-19T07:44:49;3.15;;;2.40;;
11620;SDS011;5866;49.094;11.900;2023-09-19T07:47:17;2.72;;;2.30;;
11620;SDS011;5866;49.094;11.900;2023-09-19T07:49:46;3.42;;;2.83;;
11620;SDS011;5866;49.094;11.900;2023-09-19T07:52:13;2.63;;;2.42;;
11620;SDS011;5866;49.094;11.900;2023-09-19T07:54:41;5.03;;;2.40;;
11620;SDS011;5866;49.094;11.900;2023-09-19T07:57:10;3.10;;;2.30;;
11620;SDS011;5866;49.094;11.900;2023-09-19T07:59:38;2.58;;;2.38;;
11620;SDS011;5866;49.094;11.900;2023-09-19T08:02:09;2.63;;;2.40;;
11620;SDS011;5866;49.094;11.900;2023-09-19T08:04:42;3.22;;;2.35;;
11620;SDS011;5866;49.094;11.900;2023-09-19T08:07:10;3.30;;;2.40;;
11620;SDS011;5866;49.094;11.900;2023-09-19T08:09:37;2.92;;;2.45;;
11620;SDS011;5866;49.094;11.900;2023-09-19T08:12:05;3.13;;;2.85;;
11620;SDS011;5866;49.094;11.900;2023-09-19T08:14:36;4.00;;;3.00;;
11620;SDS011;5866;49.094;11.900;2023-09-19T08:17:07;3.00;;;2.80;;
11620;SDS011;5866;49.094;11.900;2023-09-19T08:19:36;4.18;;;3.00;;
11620;SDS011;5866;49.094;11.900;2023-09-19T08:22:08;3.03;;;2.75;;
11620;SDS011;5866;49.094;11.900;2023-09-19T08:24:36;3.85;;;3.45;;
11620;SDS011;5866;49.094;11.900;2023-09-19T08:27:04;2.70;;;2.50;;
11620;SDS011;5866;49.094;11.900;2023-09-19T08:29:35;2.63;;;2.42;;
11620;SDS011;5866;49.094;11.900;2023-09-19T08:32:03;2.28;;;2.17;;
11620;SDS011;5866;49.094;11.900;2023-09-19T08:34:31;3.00;;;2.38;;
11620;SDS011;5866;49.094;11.900;2023-09-19T08:37:01;3.17;;;2.88;;
11620;SDS011;5866;49.094;11.900;2023-09-19T08:39:29;3.40;;;2.63;;
11620;SDS011;5866;49.094;11.900;2023-09-19T08:41:59;2.90;;;2.70;;
11620;SDS011;5866;49.094;11.900;2023-09-19T08:44:28;3.15;;;2.95;;
11620;SDS011;5866;49.094;11.900;2023-09-19T08:46:59;8.00;;;7.47;;
11620;SDS011;5866;49.094;11.900;2023-09-19T08:49:36;5.43;;;5.13;;
11620;SDS011;5866;49.094;11.900;2023-09-19T08:52:16;3.17;;;2.88;;
11620;SDS011;5866;49.094;11.900;2023-09-19T08:54:48;3.60;;;3.30;;
11620;SDS011;5866;49.094;11.900;2023-09-19T08:57:18;3.13;;;2.92;;
11620;SDS011;5866;49.094;11.900;2023-09-19T08:59:48;3.15;;;2.83;;
11620;SDS011;5866;49.094;11.900;2023-09-19T09:02:16;3.05;;;2.60;;
11620;SDS011;5866;49.094;11.900;2023-09-19T09:04:46;2.90;;;2.70;;
11620;SDS011;5866;49.094;11.900;2023-09-19T09:07:18;2.92;;;2.60;;
11620;SDS011;5866;49.094;11.900;2023-09-19T09:09:47;2.67;;;2.47;;
11620;SDS011;5866;49.094;11.900;2023-09-19T09:12:15;4.00;;;2.60;;
11620;SDS011;5866;49.094;11.900;2023-09-19T09:14:43;3.33;;;3.03;;
11620;SDS011;5866;49.094;11.900;2023-09-19T09:17:12;3.08;;;2.88;;
11620;SDS011;5866;49.094;11.900;2023-09-19T09:19:40;3.17;;;2.60;;
11620;SDS011;5866;49.094;11.900;2023-09-19T09:22:09;3.28;;;2.97;;
11620;SDS011;5866;49.094;11.900;2023-09-19T09:24:50;2.90;;;2.70;;
11620;SDS011;5866;49.094;11.900;2023-09-19T09:27:20;2.78;;;2.58;;
11620;SDS011;5866;49.094;11.900;2023-09-19T09:29:50;3.72;;;2.97;;
11620;SDS011;5866;49.094;11.900;2023-09-19T09:32:22;2.92;;;2.63;;
11620;SDS011;5866;49.094;11.900;2023-09-19T09:34:51;2.97;;;2.70;;
11620;SDS011;5866;49.094;11.900;2023-09-19T09:37:24;2.58;;;2.40;;
11620;SDS011;5866;49.094;11.900;2023-09-19T09:39:54;2.53;;;2.33;;
11620;SDS011;5866;49.094;11.900;2023-09-19T09:42:31;4.40;;;2.47;;
11620;SDS011;5866;49.094;11.900;2023-09-19T09:45:12;2.50;;;2.30;;
11620;SDS011;5866;49.094;11.900;2023-09-19T09:47:43;3.33;;;2.40;;
11620;SDS011;5866;49.094;11.900;2023-09-19T09:50:27;3.03;;;2.30;;
11620;SDS011;5866;49.094;11.900;2023-09-19T09:53:05;2.80;;;2.42;;
11620;SDS011;5866;49.094;11.900;2023-09-19T09:55:58;3.10;;;2.60;;
11620;SDS011;5866;49.094;11.900;2023-09-19T09:58:33;2.72;;;2.53;;
11620;SDS011;5866;49.094;11.900;2023-09-19T10:01:02;2.95;;;2.75;;
11620;SDS011;5866;49.094;11.900;2023-09-19T10:03:35;3.03;;;2.80;;
11620;SDS011;5866;49.094;11.900;2023-09-19T10:06:09;3.65;;;3.45;;
11620;SDS011;5866;49.094;11.900;2023-09-19T10:09:01;3.35;;;3.03;;
11620;SDS011;5866;49.094;11.900;2023-09-19T10:11:40;2.65;;;2.45;;
11620;SDS011;5866;49.094;11.900;2023-09-19T10:14:10;4.90;;;2.75;;
11620;SDS011;5866;49.094;11.900;2023-09-19T10:16:40;2.47;;;2.28;;
11620;SDS011;5866;49.094;11.900;2023-09-19T10:19:15;2.97;;;2.78;;
11620;SDS011;5866;49.094;11.900;2023-09-19T10:21:52;2.97;;;2.78;;
11620;SDS011;5866;49.094;11.900;2023-09-19T10:24:22;3.80;;;2.85;;
11620;SDS011;5866;49.094;11.900;2023-09-19T10:26:52;3.22;;;2.92;;
11620;SDS011;5866;49.094;11.900;2023-09-19T10:29:21;3.10;;;2.90;;
11620;SDS011;5866;49.094;11.900;2023-09-19T10:31:49;3.90;;;3.60;;
11620;SDS011;5866;49.094;11.900;2023-09-19T10:34:20;3.85;;;3.53;;
11620;SDS011;5866;49.094;11.900;2023-09-19T10:36:49;3.30;;;3.10;;
11620;SDS011;5866;49.094;11.900;2023-09-19T10:39:18;3.60;;;3.40;;
11620;SDS011;5866;49.094;11.900;2023-09-19T10:41:47;3.65;;;3.33;;
11620;SDS011;5866;49.094;11.900;2023-09-19T10:44:23;3.97;;;3.63;;
11620;SDS011;5866;49.094;11.900;2023-09-19T10:46:52;3.67;;;3.40;;
11620;SDS011;5866;49.094;11.900;2023-09-19T10:49:20;5.10;;;4.07;;
11620;SDS011;5866;49.094;11.900;2023-09-19T10:51:49;4.07;;;3.78;;
11620;SDS011;5866;49.094;11.900;2023-09-19T10:54:21;4.10;;;3.80;;
11620;SDS011;5866;49.094;11.900;2023-09-19T10:56:53;4.03;;;3.42;;
11620;SDS011;5866;49.094;11.900;2023-09-19T10:59:26;5.07;;;3.88;;
11620;SDS011;5866;49.094;11.900;2023-09-19T11:02:15;3.67;;;3.40;;
11620;SDS011;5866;49.094;11.900;2023-09-19T11:04:44;4.00;;;3.63;;
11620;SDS011;5866;49.094;11.900;2023-09-19T11:07:14;3.72;;;3.42;;
11620;SDS011;5866;49.094;11.900;2023-09-19T11:09:43;3.85;;;3.55;;
11620;SDS011;5866;49.094;11.900;2023-09-19T11:12:13;4.10;;;3.70;;
11620;SDS011;5866;49.094;11.900;2023-09-19T11:21:41;3.85;;;3.63;;
11620;SDS011;5866;49.094;11.900;2023-09-19T11:24:28;3.67;;;3.38;;
11620;SDS011;5866;49.094;11.900;2023-09-19T11:27:13;4.00;;;3.70;;
11620;SDS011;5866;49.094;11.900;2023-09-19T11:29:44;5.60;;;3.72;;
11620;SDS011;5866;49.094;11.900;2023-09-19T11:32:12;3.55;;;3.25;;
11620;SDS011;5866;49.094;11.900;2023-09-19T11:34:45;5.13;;;3.25;;
11620;SDS011;5866;49.094;11.900;2023-09-19T11:40:37;3.55;;;3.28;;
11620;SDS011;5866;49.094;11.900;2023-09-19T11:46:04;3.25;;;3.05;;
11620;SDS011;5866;49.094;11.900;2023-09-19T11:48:32;3.30;;;3.10;;
11620;SDS011;5866;49.094;11.900;2023-09-19T11:51:13;3.35;;;3.15;;
11620;SDS011;5866;49.094;11.900;2023-09-19T11:53:46;3.17;;;2.70;;
11620;SDS011;5866;49.094;11.900;2023-09-19T11:56:17;3.60;;;3.30;;
11620;SDS011;5866;49.094;11.900;2023-09-19T11:58:46;3.33;;;3.13;;
11620;SDS011;5866;49.094;11.900;2023-09-19T12:01:21;3.05;;;2.75;;
11620;SDS011;5866;49.094;11.900;2023-09-19T12:03:52;2.90;;;2.70;;
11620;SDS011;5866;49.094;11.900;2023-09-19T12:06:24;3.55;;;3.25;;
11620;SDS011;5866;49.094;11.900;2023-09-19T12:08:53;4.90;;;3.10;;
11620;SDS011;5866;49.094;11.900;2023-09-19T12:11:22;3.28;;;3.08;;
11620;SDS011;5866;49.094;11.900;2023-09-19T12:13:52;7.25;;;3.42;;
11620;SDS011;5866;49.094;11.900;2023-09-19T12:16:23;3.25;;;2.95;;
11620;SDS011;5866;49.094;11.900;2023-09-19T12:18:50;3.35;;;3.08;;
11620;SDS011;5866;49.094;11.900;2023-09-19T12:21:23;2.75;;;2.45;;
11620;SDS011;5866;49.094;11.900;2023-09-19T12:26:46;3.03;;;2.83;;
11620;SDS011;5866;49.094;11.900;2023-09-19T12:29:18;3.88;;;2.58;;
11620;SDS011;5866;49.094;11.900;2023-09-19T12:31:51;2.70;;;2.55;;
11620;SDS011;5866;49.094;11.900;2023-09-19T12:34:22;3.13;;;2.45;;
11620;SDS011;5866;49.094;11.900;2023-09-19T12:39:49;2.83;;;2.50;;
11620;SDS011;5866;49.094;11.900;2023-09-19T12:42:21;3.10;;;2.42;;
11620;SDS011;5866;49.094;11.900;2023-09-19T12:44:51;2.60;;;2.40;;
11620;SDS011;5866;49.094;11.900;2023-09-19T12:47:21;2.63;;;2.42;;
11620;SDS011;5866;49.094;11.900;2023-09-19T12:50:07;2.75;;;2.35;;
11620;SDS011;5866;49.094;11.900;2023-09-19T12:52:40;2.38;;;2.17;;
11620;SDS011;5866;49.094;11.900;2023-09-19T12:55:19;2.38;;;2.28;;
11620;SDS011;5866;49.094;11.900;2023-09-19T12:57:59;2.55;;;2.38;;
11620;SDS011;5866;49.094;11.900;2023-09-19T13:00:35;2.70;;;2.50;;
11620;SDS011;5866;49.094;11.900;2023-09-19T13:03:15;2.22;;;2.10;;
11620;SDS011;5866;49.094;11.900;2023-09-19T13:05:46;2.63;;;2.42;;
11620;SDS011;5866;49.094;11.900;2023-09-19T13:08:18;2.53;;;2.40;;
11620;SDS011;5866;49.094;11.900;2023-09-19T13:10:59;2.42;;;2.22;;
11620;SDS011;5866;49.094;11.900;2023-09-19T13:13:41;2.40;;;2.20;;
11620;SDS011;5866;49.094;11.900;2023-09-19T13:16:14;2.75;;;2.55;;
11620;SDS011;5866;49.094;11.900;2023-09-19T13:18:46;2.60;;;2.40;;
11620;SDS011;5866;49.094;11.900;2023-09-19T13:21:17;2.92;;;2.55;;
11620;SDS011;5866;49.094;11.900;2023-09-19T13:23:55;2.85;;;2.65;;
11620;SDS011;5866;49.094;11.900;2023-09-19T13:26:25;2.22;;;2.13;;
11620;SDS011;5866;49.094;11.900;2023-09-19T13:28:55;2.78;;;2.58;;
11620;SDS011;5866;49.094;11.900;2023-09-19T13:31:23;2.60;;;2.40;;
11620;SDS011;5866;49.094;11.900;2023-09-19T13:33:51;3.05;;;2.72;;
11620;SDS011;5866;49.094;11.900;2023-09-19T13:36:19;2.70;;;2.50;;
11620;SDS011;5866;49.094;11.900;2023-09-19T13:38:46;2.83;;;2.58;;
11620;SDS011;5866;49.094;11.900;2023-09-19T13:41:15;3.67;;;2.65;;
11620;SDS011;5866;49.094;11.900;2023-09-19T13:43:43;3.30;;;2.72;;
11620;SDS011;5866;49.094;11.900;2023-09-19T13:46:16;3.10;;;2.83;;
11620;SDS011;5866;49.094;11.900;2023-09-19T13:48:51;2.40;;;2.20;;
11620;SDS011;5866;49.094;11.900;2023-09-19T13:51:20;2.90;;;2.45;;
11620;SDS011;5866;49.094;11.900;2023-09-19T13:53:49;2.80;;;2.60;;
11620;SDS011;5866;49.094;11.900;2023-09-19T13:56:16;2.90;;;2.70;;
11620;SDS011;5866;49.094;11.900;2023-09-19T13:58:44;2.60;;;2.40;;
11620;SDS011;5866;49.094;11.900;2023-09-19T14:01:12;2.95;;;2.20;;
11620;SDS011;5866;49.094;11.900;2023-09-19T14:03:41;2.80;;;2.60;;
11620;SDS011;5866;49.094;11.900;2023-09-19T14:06:12;3.75;;;2.83;;
11620;SDS011;5866;49.094;11.900;2023-09-19T14:08:40;3.00;;;2.80;;
11620;SDS011;5866;49.094;11.900;2023-09-19T14:11:08;2.88;;;2.60;;
11620;SDS011;5866;49.094;11.900;2023-09-19T14:13:36;2.58;;;2.38;;
11620;SDS011;5866;49.094;11.900;2023-09-19T14:16:04;2.67;;;2.47;;
11620;SDS011;5866;49.094;11.900;2023-09-19T14:18:32;2.70;;;2.50;;
11620;SDS011;5866;49.094;11.900;2023-09-19T14:21:03;2.40;;;2.20;;
11620;SDS011;5866;49.094;11.900;2023-09-19T14:23:34;3.15;;;2.30;;
11620;SDS011;5866;49.094;11.900;2023-09-19T14:26:02;2.30;;;2.10;;
11620;SDS011;5866;49.094;11.900;2023-09-19T14:28:31;2.80;;;2.60;;
11620;SDS011;5866;49.094;11.900;2023-09-19T14:31:03;2.45;;;2.25;;
11620;SDS011;5866;49.094;11.900;2023-09-19T14:33:32;3.63;;;2.50;;
11620;SDS011;5866;49.094;11.900;2023-09-19T14:36:03;3.22;;;2.15;;
11620;SDS011;5866;49.094;11.900;2023-09-19T14:38:32;2.95;;;2.75;;
11620;SDS011;5866;49.094;11.900;2023-09-19T14:41:01;2.85;;;2.65;;
11620;SDS011;5866;49.094;11.900;2023-09-19T14:43:28;2.30;;;2.20;;
11620;SDS011;5866;49.094;11.900;2023-09-19T14:45:56;2.50;;;2.30;;
11620;SDS011;5866;49.094;11.900;2023-09-19T14:48:24;2.50;;;2.30;;
11620;SDS011;5866;49.094;11.900;2023-09-19T14:50:52;2.50;;;2.17;;
11620;SDS011;5866;49.094;11.900;2023-09-19T14:53:22;2.55;;;2.35;;
11620;SDS011;5866;49.094;11.900;2023-09-19T14:55:51;2.45;;;2.25;;
11620;SDS011;5866;49.094;11.900;2023-09-19T14:58:21;2.20;;;2.10;;
11620;SDS011;5866;49.094;11.900;2023-09-19T15:00:51;2.60;;;2.40;;
11620;SDS011;5866;49.094;11.900;2023-09-19T15:03:19;2.35;;;2.15;;
11620;SDS011;5866;49.094;11.900;2023-09-19T15:05:47;2.85;;;2.33;;
11620;SDS011;5866;49.094;11.900;2023-09-19T15:08:15;2.53;;;2.33;;
11620;SDS011;5866;49.094;11.900;2023-09-19T15:10:50;2.20;;;2.10;;
11620;SDS011;5866;49.094;11.900;2023-09-19T15:13:19;4.47;;;2.42;;
11620;SDS011;5866;49.094;11.900;2023-09-19T15:15:47;2.53;;;2.33;;